createdAt,value
2018-12-05T00:02:14.132Z,3.70
2018-12-05T00:04:42.334Z,3.59
2018-12-05T00:07:10.562Z,3.64
2018-12-05T00:09:38.974Z,3.49
2018-12-05T00:12:07.129Z,3.60
2018-12-05T00:14:35.432Z,3.91
2018-12-05T00:17:03.601Z,3.87
2018-12-05T00:19:31.967Z,3.76
2018-12-05T00:22:00.165Z,3.73
2018-12-05T00:24:28.339Z,3.80
2018-12-05T00:26:57.107Z,3.69
2018-12-05T00:29:26.151Z,3.90
2018-12-05T00:31:55.357Z,3.84
2018-12-05T00:34:24.604Z,3.57
2018-12-05T00:36:53.692Z,3.85
2018-12-05T00:39:22.815Z,3.84
2018-12-05T00:41:52.459Z,3.78
2018-12-05T00:44:21.730Z,3.97
2018-12-05T00:46:50.817Z,3.61
2018-12-05T00:49:20.618Z,3.53
2018-12-05T00:51:52.122Z,3.51
2018-12-05T00:54:22.429Z,3.66
2018-12-05T00:56:51.553Z,3.74
2018-12-05T00:59:21.919Z,3.43
2018-12-05T01:01:51.282Z,3.31
2018-12-05T01:04:31.383Z,3.29
2018-12-05T01:07:01.609Z,3.12
2018-12-05T01:09:30.748Z,3.21
2018-12-05T01:11:59.735Z,3.06
2018-12-05T01:14:28.693Z,3.04
2018-12-05T01:16:57.690Z,2.63
2018-12-05T01:19:26.489Z,2.83
2018-12-05T01:21:55.708Z,2.76
2018-12-05T01:24:24.920Z,2.28
2018-12-05T01:26:54.241Z,2.65
2018-12-05T01:29:23.699Z,2.48
2018-12-05T01:31:53.065Z,2.10
2018-12-05T01:34:22.318Z,2.30
2018-12-05T01:36:51.564Z,2.29
2018-12-05T01:39:20.677Z,2.21
2018-12-05T01:41:48.844Z,2.17
2018-12-05T01:44:17.105Z,2.16
2018-12-05T01:46:45.317Z,2.23
2018-12-05T01:49:13.472Z,2.15
2018-12-05T01:51:41.629Z,2.12
2018-12-05T01:54:09.927Z,2.14
2018-12-05T01:56:38.166Z,2.03
2018-12-05T01:59:06.697Z,2.01
2018-12-05T02:01:34.970Z,1.91
2018-12-05T02:04:03.184Z,2.05
2018-12-05T02:06:31.451Z,2.24
2018-12-05T02:08:59.696Z,2.10
2018-12-05T02:11:29.960Z,2.27
2018-12-05T02:13:58.177Z,1.80
2018-12-05T02:16:26.451Z,1.85
2018-12-05T02:21:27.833Z,1.90
2018-12-05T02:23:55.969Z,1.96
2018-12-05T02:26:24.208Z,1.90
2018-12-05T02:28:52.384Z,1.76
2018-12-05T02:31:21.330Z,1.64
2018-12-05T02:33:49.574Z,1.62
2018-12-05T02:36:17.819Z,1.72
2018-12-05T02:38:46.588Z,1.79
2018-12-05T02:41:14.919Z,1.54
2018-12-05T02:43:43.269Z,1.60
2018-12-05T02:46:11.472Z,1.79
2018-12-05T02:48:39.710Z,1.51
2018-12-05T02:51:07.922Z,1.43
2018-12-05T02:53:36.275Z,1.33
2018-12-05T02:56:04.632Z,1.26
2018-12-05T02:58:32.876Z,1.31
2018-12-05T03:01:01.115Z,1.15
2018-12-05T03:03:29.314Z,1.26
2018-12-05T03:05:57.578Z,1.22
2018-12-05T03:08:25.941Z,1.18
2018-12-05T03:10:54.189Z,1.25
2018-12-05T03:13:22.452Z,1.17
2018-12-05T03:15:50.618Z,0.97
2018-12-05T03:18:21.883Z,1.35
2018-12-05T03:20:50.076Z,1.31
2018-12-05T03:23:18.244Z,1.29
2018-12-05T03:25:46.544Z,1.36
2018-12-05T03:28:14.818Z,1.39
2018-12-05T03:30:43.129Z,1.32
2018-12-05T03:33:11.285Z,1.34
2018-12-05T03:35:39.650Z,1.31
2018-12-05T03:38:07.958Z,1.11
2018-12-05T03:40:36.443Z,1.15
2018-12-05T03:43:04.791Z,1.17
2018-12-05T03:45:33.011Z,1.12
2018-12-05T03:48:01.325Z,1.13
2018-12-05T03:50:29.570Z,1.24
2018-12-05T03:52:57.924Z,1.11
2018-12-05T03:55:26.090Z,1.04
2018-12-05T03:57:54.303Z,1.05
2018-12-05T04:00:22.739Z,0.96
2018-12-05T04:02:50.967Z,0.89
2018-12-05T04:05:19.239Z,0.94
2018-12-05T04:07:47.433Z,1.03
2018-12-05T04:10:15.741Z,0.98
2018-12-05T04:12:44.118Z,0.94
2018-12-05T04:15:12.535Z,1.15
2018-12-05T04:17:40.924Z,1.03
2018-12-05T04:20:09.357Z,1.18
2018-12-05T04:22:37.547Z,1.18
2018-12-05T04:25:06.001Z,1.32
2018-12-05T04:27:34.172Z,1.41
2018-12-05T04:30:02.361Z,1.22
2018-12-05T04:32:30.544Z,1.46
2018-12-05T04:34:58.823Z,1.45
2018-12-05T04:37:27.127Z,1.32
2018-12-05T04:39:55.306Z,1.27
2018-12-05T04:42:23.450Z,1.38
2018-12-05T04:44:51.607Z,1.33
2018-12-05T04:47:19.781Z,1.44
2018-12-05T04:49:47.925Z,1.14
2018-12-05T04:52:16.276Z,0.73
2018-12-05T04:54:44.449Z,0.72
2018-12-05T04:57:12.746Z,0.73
2018-12-05T04:59:40.918Z,0.41
2018-12-05T05:02:09.241Z,0.36
2018-12-05T05:04:37.584Z,0.24
2018-12-05T05:07:07.092Z,0.37
2018-12-05T05:09:35.445Z,0.19
2018-12-05T05:12:03.798Z,0.05
2018-12-05T05:14:31.962Z,0.01
2018-12-05T05:17:00.344Z,-0.19
2018-12-05T05:19:28.515Z,-0.06
2018-12-05T05:21:56.697Z,-0.15
2018-12-05T05:24:24.889Z,0.04
2018-12-05T05:26:53.028Z,-0.05
2018-12-05T05:29:21.217Z,-0.14
2018-12-05T05:31:49.401Z,-0.16
2018-12-05T05:34:17.618Z,-0.11
2018-12-05T05:36:45.810Z,-0.17
2018-12-05T05:39:14.075Z,-0.25
2018-12-05T05:41:42.353Z,-0.21
2018-12-05T05:44:10.592Z,-0.16
2018-12-05T05:46:38.749Z,-0.24
2018-12-05T05:49:06.903Z,-0.15
2018-12-05T05:51:35.119Z,-0.14
2018-12-05T05:54:03.317Z,-0.16
2018-12-05T05:56:38.013Z,-0.07
2018-12-05T05:59:06.336Z,-0.08
2018-12-05T06:01:34.527Z,-0.12
2018-12-05T06:04:02.748Z,-0.09
2018-12-05T06:06:31.023Z,-0.01
2018-12-05T06:08:59.195Z,-0.11
2018-12-05T06:11:27.360Z,-0.12
2018-12-05T06:13:55.695Z,-0.11
2018-12-05T06:16:23.999Z,-0.23
2018-12-05T06:18:52.141Z,-0.20
2018-12-05T06:21:20.372Z,-0.15
2018-12-05T06:23:48.629Z,-0.16
2018-12-05T06:26:16.926Z,-0.22
2018-12-05T06:28:45.164Z,-0.39
2018-12-05T06:31:13.334Z,-0.22
2018-12-05T06:33:41.493Z,-0.17
2018-12-05T06:36:09.827Z,-0.24
2018-12-05T06:38:38.079Z,-0.09
2018-12-05T06:41:06.220Z,-0.24
2018-12-05T06:43:34.380Z,-0.35
2018-12-05T06:46:02.544Z,-0.21
2018-12-05T06:48:30.839Z,-0.17
2018-12-05T06:50:59.070Z,-0.48
2018-12-05T06:53:27.397Z,-0.31
2018-12-05T06:55:55.685Z,-0.23
2018-12-05T06:58:23.863Z,-0.29
2018-12-05T07:00:52.012Z,-0.28
2018-12-05T07:03:20.221Z,-0.17
2018-12-05T07:05:48.444Z,-0.25
2018-12-05T07:08:16.727Z,-0.14
2018-12-05T07:10:45.000Z,-0.37
2018-12-05T07:13:13.148Z,-0.19
2018-12-05T07:15:41.356Z,-0.36
2018-12-05T07:18:09.562Z,-0.62
2018-12-05T07:20:37.866Z,-0.36
2018-12-05T07:23:06.139Z,-0.57
2018-12-05T07:25:34.273Z,-0.49
2018-12-05T07:28:02.512Z,-0.61
2018-12-05T07:30:30.645Z,-0.55
2018-12-05T07:32:58.871Z,-0.45
2018-12-05T07:35:27.053Z,-0.37
2018-12-05T07:37:55.360Z,-0.27
2018-12-05T07:40:23.518Z,-0.54
2018-12-05T07:42:51.700Z,-0.52
2018-12-05T07:45:20.039Z,-0.50
2018-12-05T07:47:48.224Z,-0.44
2018-12-05T07:50:16.495Z,-0.31
2018-12-05T07:52:44.660Z,-0.46
2018-12-05T07:55:12.876Z,-0.35
2018-12-05T07:57:41.141Z,-0.41
2018-12-05T08:00:09.556Z,-0.27
2018-12-05T08:02:37.753Z,-0.39
2018-12-05T08:05:06.081Z,-0.40
2018-12-05T08:07:34.320Z,-0.33
2018-12-05T08:10:02.612Z,-0.21
2018-12-05T08:12:30.865Z,-0.13
2018-12-05T08:14:59.092Z,-0.13
2018-12-05T08:17:27.278Z,-0.11
2018-12-05T08:19:55.534Z,-0.15
2018-12-05T08:22:23.687Z,0.02
2018-12-05T08:24:51.868Z,0.04
2018-12-05T08:27:23.921Z,0.10
2018-12-05T08:29:52.331Z,-0.08
2018-12-05T08:32:20.548Z,0.11
2018-12-05T08:34:48.837Z,0.14
2018-12-05T08:37:17.077Z,0.31
2018-12-05T08:39:45.303Z,0.39
2018-12-05T08:42:14.784Z,0.51
2018-12-05T08:44:43.133Z,0.39
2018-12-05T08:47:11.725Z,0.47
2018-12-05T08:49:39.907Z,0.50
2018-12-05T08:52:08.159Z,0.55
2018-12-05T08:54:36.364Z,0.70
2018-12-05T08:57:04.665Z,0.67
2018-12-05T08:59:32.830Z,0.82
2018-12-05T09:02:01.118Z,0.84
2018-12-05T09:04:29.521Z,0.90
2018-12-05T09:06:57.732Z,0.93
2018-12-05T09:09:26.001Z,0.99
2018-12-05T09:11:54.172Z,1.06
2018-12-05T09:14:28.634Z,1.09
2018-12-05T09:16:52.773Z,1.16
2018-12-05T09:19:20.952Z,1.23
2018-12-05T09:21:49.128Z,1.28
2018-12-05T09:24:17.814Z,1.44
2018-12-05T09:26:46.314Z,1.49
2018-12-05T09:29:19.101Z,1.55
2018-12-05T09:31:51.754Z,1.64
2018-12-05T09:34:20.322Z,1.68
2018-12-05T09:36:51.319Z,1.75
2018-12-05T09:39:21.860Z,1.88
2018-12-05T09:41:57.161Z,1.98
2018-12-05T09:44:26.233Z,2.05
2018-12-05T09:46:55.521Z,2.10
2018-12-05T09:49:29.617Z,2.10
2018-12-05T09:52:01.565Z,2.24
2018-12-05T09:54:31.024Z,2.25
2018-12-05T09:56:59.301Z,2.30
2018-12-05T09:59:28.305Z,2.40
2018-12-05T10:01:57.402Z,2.47
2018-12-05T10:04:27.388Z,2.44
2018-12-05T10:06:59.300Z,2.41
2018-12-05T10:09:28.429Z,2.41
2018-12-05T10:11:58.272Z,2.50
2018-12-05T10:14:28.497Z,2.52
2018-12-05T10:16:59.232Z,2.51
2018-12-05T10:19:29.662Z,2.51
2018-12-05T10:22:01.232Z,2.56
2018-12-05T10:24:44.865Z,2.52
2018-12-05T10:27:13.341Z,2.60
2018-12-05T10:29:41.599Z,2.70
2018-12-05T10:32:09.850Z,2.77
2018-12-05T10:34:38.022Z,2.83
2018-12-05T10:37:06.260Z,2.83
2018-12-05T10:39:34.416Z,2.87
2018-12-05T10:42:02.619Z,2.99
2018-12-05T10:44:30.892Z,2.95
2018-12-05T10:46:59.052Z,3.01
2018-12-05T10:49:27.277Z,2.98
2018-12-05T10:51:55.582Z,3.05
2018-12-05T10:54:23.831Z,2.98
2018-12-05T10:56:52.144Z,2.99
2018-12-05T10:59:20.317Z,3.08
2018-12-05T11:01:53.737Z,3.13
2018-12-05T11:04:27.181Z,3.20
2018-12-05T11:07:00.569Z,3.29
2018-12-05T11:09:34.083Z,3.24
2018-12-05T11:12:07.616Z,3.30
2018-12-05T11:14:47.630Z,3.33
2018-12-05T11:17:21.101Z,3.34
2018-12-05T11:19:59.445Z,3.33
2018-12-05T11:22:33.082Z,3.55
2018-12-05T11:25:04.216Z,3.45
2018-12-05T11:27:32.421Z,3.45
2018-12-05T11:30:00.588Z,3.45
2018-12-05T11:32:28.799Z,3.42
2018-12-05T11:34:56.953Z,3.54
2018-12-05T11:37:25.575Z,3.48
2018-12-05T11:39:53.853Z,3.47
2018-12-05T11:42:22.008Z,3.60
2018-12-05T11:44:50.173Z,3.62
2018-12-05T11:47:18.400Z,3.62
2018-12-05T11:49:46.651Z,3.56
2018-12-05T11:52:14.820Z,3.64
2018-12-05T11:54:43.143Z,3.55
2018-12-05T11:57:11.482Z,3.60
2018-12-05T11:59:39.726Z,3.51
2018-12-05T12:02:08.020Z,3.55
2018-12-05T12:04:36.243Z,3.57
2018-12-05T12:07:04.564Z,3.57
2018-12-05T12:09:32.856Z,3.57
2018-12-05T12:12:01.121Z,3.63
2018-12-05T12:14:29.386Z,3.65
2018-12-05T12:16:57.686Z,3.71
2018-12-05T12:19:26.017Z,3.62
2018-12-05T12:21:54.225Z,3.79
2018-12-05T12:24:22.693Z,3.78
2018-12-05T12:26:50.870Z,3.77
2018-12-05T12:29:19.121Z,3.88
2018-12-05T12:31:47.526Z,3.93
2018-12-05T12:34:15.710Z,3.88
2018-12-05T12:36:44.007Z,3.87
2018-12-05T12:39:12.326Z,3.97
2018-12-05T12:41:40.616Z,3.82
2018-12-05T12:44:08.792Z,3.83
2018-12-05T12:46:37.016Z,3.72
2018-12-05T12:49:05.253Z,3.71
2018-12-05T12:51:33.623Z,3.75
2018-12-05T12:54:01.782Z,3.77
2018-12-05T12:56:30.049Z,3.80
2018-12-05T12:58:58.277Z,3.75
2018-12-05T13:01:26.565Z,3.80
2018-12-05T13:03:54.824Z,3.87
2018-12-05T13:06:23.068Z,3.93
2018-12-05T13:08:51.225Z,4.01
2018-12-05T13:11:19.576Z,4.07
2018-12-05T13:13:47.732Z,4.09
2018-12-05T13:16:15.980Z,4.16
2018-12-05T13:18:44.262Z,4.14
2018-12-05T13:21:12.536Z,4.17
2018-12-05T13:23:53.284Z,4.19
2018-12-05T13:26:22.312Z,4.19
2018-12-05T13:28:50.601Z,4.10
2018-12-05T13:31:18.843Z,4.00
2018-12-05T13:33:47.056Z,4.00
2018-12-05T13:36:15.469Z,4.03
2018-12-05T13:38:43.637Z,3.83
2018-12-05T13:41:11.876Z,3.88
2018-12-05T13:43:40.129Z,3.85
2018-12-05T13:46:08.378Z,3.82
2018-12-05T13:48:36.734Z,3.81
2018-12-05T13:51:04.999Z,3.82
2018-12-05T13:53:33.239Z,3.75
2018-12-05T13:56:02.963Z,3.79
2018-12-05T13:58:31.461Z,3.72
2018-12-05T14:00:59.673Z,3.70
2018-12-05T14:03:27.946Z,3.61
2018-12-05T14:05:56.343Z,3.60
2018-12-05T14:08:24.694Z,3.56
2018-12-05T14:10:52.973Z,3.56
2018-12-05T14:13:21.191Z,3.67
2018-12-05T14:15:49.589Z,3.54
2018-12-05T14:18:17.764Z,3.45
2018-12-05T14:20:45.947Z,3.41
2018-12-05T14:23:14.141Z,3.49
2018-12-05T14:25:42.389Z,3.43
2018-12-05T14:28:10.561Z,3.36
2018-12-05T14:30:38.919Z,3.37
2018-12-05T14:33:08.548Z,3.27
2018-12-05T14:35:36.797Z,3.27
2018-12-05T14:38:05.129Z,3.24
2018-12-05T14:40:33.428Z,3.16
2018-12-05T14:43:01.644Z,3.10
2018-12-05T14:45:29.890Z,3.04
2018-12-05T14:47:58.052Z,3.02
2018-12-05T14:50:26.458Z,2.99
2018-12-05T14:52:54.748Z,2.99
2018-12-05T14:55:22.983Z,2.94
2018-12-05T14:57:51.237Z,2.89
2018-12-05T15:00:19.624Z,2.87
2018-12-05T15:02:59.879Z,2.82
2018-12-05T15:05:48.378Z,2.83
2018-12-05T15:08:16.665Z,2.73
2018-12-05T15:10:44.961Z,2.71
2018-12-05T15:13:13.217Z,2.68
2018-12-05T15:15:41.393Z,2.73
2018-12-05T15:18:09.665Z,2.63
2018-12-05T15:20:37.843Z,2.56
2018-12-05T15:23:06.112Z,2.45
2018-12-05T15:25:34.484Z,2.47
2018-12-05T15:28:02.746Z,2.58
2018-12-05T15:30:31.113Z,2.43
2018-12-05T15:32:59.488Z,2.48
2018-12-05T15:35:27.696Z,2.39
2018-12-05T15:37:56.099Z,2.40
2018-12-05T15:40:24.221Z,2.37
2018-12-05T15:42:52.436Z,2.33
2018-12-05T15:45:21.674Z,2.31
2018-12-05T15:47:49.987Z,2.30
2018-12-05T15:50:18.273Z,2.30
2018-12-05T15:52:52.790Z,2.18
2018-12-05T15:55:21.065Z,2.23
2018-12-05T15:57:49.240Z,2.19
2018-12-05T16:00:17.599Z,2.20
2018-12-05T16:02:45.849Z,2.15
2018-12-05T16:05:14.119Z,2.17
2018-12-05T16:07:42.312Z,2.11
2018-12-05T16:10:10.732Z,2.20
2018-12-05T16:12:38.926Z,2.10
2018-12-05T16:15:07.298Z,2.07
2018-12-05T16:17:35.578Z,2.16
2018-12-05T16:20:03.965Z,2.23
2018-12-05T16:22:32.240Z,1.93
2018-12-05T16:25:00.486Z,2.00
2018-12-05T16:27:28.710Z,2.04
2018-12-05T16:29:57.063Z,2.13
2018-12-05T16:32:25.436Z,2.09
2018-12-05T16:34:53.669Z,1.86
2018-12-05T16:37:21.879Z,1.87
2018-12-05T16:39:50.134Z,1.72
2018-12-05T16:42:18.444Z,1.73
2018-12-05T16:44:46.619Z,1.69
2018-12-05T16:47:14.880Z,1.72
2018-12-05T16:49:43.095Z,1.77
2018-12-05T16:52:11.317Z,1.78
2018-12-05T16:54:39.894Z,1.84
2018-12-05T16:57:08.359Z,1.97
2018-12-05T16:59:36.545Z,1.97
2018-12-05T17:02:04.842Z,2.05
2018-12-05T17:04:33.138Z,2.05
2018-12-05T17:07:01.315Z,2.12
2018-12-05T17:09:29.475Z,2.13
2018-12-05T17:11:57.710Z,2.23
2018-12-05T17:14:27.058Z,2.09
2018-12-05T17:16:55.513Z,2.22
2018-12-05T17:19:23.791Z,2.28
2018-12-05T17:21:52.014Z,2.42
2018-12-05T17:24:21.218Z,2.40
2018-12-05T17:26:49.508Z,2.51
2018-12-05T17:29:17.769Z,2.55
2018-12-05T17:31:45.930Z,2.62
2018-12-05T17:34:14.081Z,2.55
2018-12-05T17:36:46.994Z,2.49
2018-12-05T17:39:15.225Z,2.61
2018-12-05T17:41:43.412Z,2.57
2018-12-05T17:44:11.561Z,2.54
2018-12-05T17:46:39.762Z,2.61
2018-12-05T17:49:08.019Z,2.60
2018-12-05T17:51:36.192Z,2.68
2018-12-05T17:54:04.930Z,2.63
2018-12-05T17:56:33.139Z,2.70
2018-12-05T17:59:01.304Z,2.66
2018-12-05T18:01:29.630Z,2.69
2018-12-05T18:03:57.784Z,2.73
2018-12-05T18:06:25.995Z,2.75
2018-12-05T18:08:54.234Z,2.72
2018-12-05T18:11:22.496Z,2.73
2018-12-05T18:13:51.280Z,2.87
2018-12-05T18:16:19.607Z,2.93
2018-12-05T18:18:47.966Z,2.85
2018-12-05T18:21:16.284Z,2.90
2018-12-05T18:23:46.026Z,3.04
2018-12-05T18:26:14.273Z,2.93
2018-12-05T18:28:42.670Z,3.09
2018-12-05T18:31:18.527Z,3.05
2018-12-05T18:34:01.173Z,3.15
2018-12-05T18:36:34.942Z,3.09
2018-12-05T18:39:05.744Z,3.18
2018-12-05T18:41:35.077Z,3.12
2018-12-05T18:44:04.261Z,3.12
2018-12-05T18:46:40.682Z,3.09
2018-12-05T18:49:09.625Z,3.15
2018-12-05T18:51:37.964Z,3.04
2018-12-05T18:54:06.156Z,3.14
2018-12-05T18:56:34.458Z,3.15
2018-12-05T18:59:02.789Z,3.10
2018-12-05T19:01:31.176Z,3.15
2018-12-05T19:04:00.499Z,3.14
2018-12-05T19:06:28.874Z,3.15
2018-12-05T19:08:57.137Z,3.13
2018-12-05T19:11:25.486Z,3.14
2018-12-05T19:13:59.030Z,3.11
2018-12-05T19:16:27.364Z,3.16
2018-12-05T19:18:55.599Z,3.14
2018-12-05T19:21:23.786Z,3.12
2018-12-05T19:23:51.938Z,3.12
2018-12-05T19:26:20.201Z,3.18
2018-12-05T19:28:48.489Z,3.24
2018-12-05T19:31:19.480Z,3.23
2018-12-05T19:33:47.095Z,3.21
2018-12-05T19:36:15.283Z,3.33
2018-12-05T19:38:43.561Z,3.28
2018-12-05T19:41:11.739Z,3.36
2018-12-05T19:43:39.919Z,3.36
2018-12-05T19:47:11.014Z,3.37
2018-12-05T19:49:39.235Z,3.30
2018-12-05T19:52:07.599Z,3.28
2018-12-05T19:54:36.098Z,3.31
2018-12-05T19:57:04.359Z,3.23
2018-12-05T19:59:32.607Z,3.29
2018-12-05T20:02:00.844Z,3.17
2018-12-05T20:04:29.220Z,3.13
2018-12-05T20:06:57.600Z,3.12
2018-12-05T20:09:25.871Z,3.14
2018-12-05T20:11:54.053Z,3.15
2018-12-05T20:14:27.598Z,3.08
2018-12-05T20:16:55.817Z,3.04
2018-12-05T20:19:24.053Z,3.03
2018-12-05T20:21:52.242Z,3.04
2018-12-05T20:24:20.480Z,3.03
2018-12-05T20:26:48.651Z,3.01
2018-12-05T20:29:16.948Z,3.02
2018-12-05T20:31:45.147Z,3.03
2018-12-05T20:34:13.353Z,3.02
2018-12-05T20:36:41.698Z,3.02
2018-12-05T20:39:11.390Z,3.05
2018-12-05T20:41:39.673Z,3.00
2018-12-05T20:44:08.017Z,2.99
2018-12-05T20:46:36.170Z,3.04
2018-12-05T20:49:04.476Z,3.00
2018-12-05T20:51:32.818Z,3.00
2018-12-05T20:54:01.060Z,3.08
2018-12-05T20:56:29.263Z,3.00
2018-12-05T20:58:57.433Z,3.05
2018-12-05T21:01:29.473Z,3.06
2018-12-05T21:03:57.761Z,3.06
2018-12-05T21:06:26.013Z,3.05
2018-12-05T21:08:59.008Z,3.09
2018-12-05T21:11:28.961Z,3.09
2018-12-05T21:14:00.912Z,3.12
2018-12-05T21:16:29.115Z,3.14
2018-12-05T21:18:57.488Z,3.15
2018-12-05T21:21:25.692Z,3.33
2018-12-05T21:23:53.960Z,3.25
2018-12-05T21:26:22.246Z,3.23
2018-12-05T21:28:50.386Z,3.29
2018-12-05T21:31:18.582Z,3.28
2018-12-05T21:33:46.817Z,3.36
2018-12-05T21:36:15.130Z,3.38
2018-12-05T21:38:43.288Z,3.37
2018-12-05T21:41:11.681Z,3.42
2018-12-05T21:43:39.910Z,3.48
2018-12-05T21:46:08.066Z,3.46
2018-12-05T21:48:36.299Z,3.43
2018-12-05T21:51:04.560Z,3.51
2018-12-05T21:53:32.721Z,3.55
2018-12-05T21:56:00.907Z,3.52
2018-12-05T21:58:29.130Z,3.52
2018-12-05T22:00:57.367Z,3.57
2018-12-05T22:03:27.686Z,3.60
2018-12-05T22:05:57.174Z,3.58
2018-12-05T22:08:26.520Z,3.59
2018-12-05T22:10:57.383Z,3.61
2018-12-05T22:13:25.578Z,3.64
2018-12-05T22:15:53.841Z,3.59
2018-12-05T22:18:22.017Z,3.59
2018-12-05T22:20:50.262Z,3.62
2018-12-05T22:23:18.454Z,3.59
2018-12-05T22:25:46.929Z,3.52
2018-12-05T22:28:15.093Z,3.52
2018-12-05T22:30:43.353Z,3.52
2018-12-05T22:33:11.578Z,3.46
2018-12-05T22:35:39.899Z,3.51
2018-12-05T22:38:08.048Z,3.44
2018-12-05T22:40:36.262Z,3.44
2018-12-05T22:43:04.669Z,3.45
2018-12-05T22:45:32.936Z,3.41
2018-12-05T22:48:01.100Z,3.45
2018-12-05T22:50:29.293Z,3.43
2018-12-05T22:52:57.569Z,3.42
2018-12-05T22:55:25.772Z,3.45
2018-12-05T22:57:54.105Z,3.48
2018-12-05T23:00:25.544Z,3.45
2018-12-05T23:02:53.792Z,3.47
2018-12-05T23:05:21.978Z,3.48
2018-12-05T23:07:50.366Z,3.47
2018-12-05T23:10:18.609Z,3.49
2018-12-05T23:12:46.849Z,3.46
2018-12-05T23:15:15.025Z,3.48
2018-12-05T23:17:43.295Z,3.45
2018-12-05T23:20:11.591Z,3.41
2018-12-05T23:22:39.917Z,3.44
2018-12-05T23:25:08.135Z,3.45
2018-12-05T23:27:40.514Z,3.44
2018-12-05T23:30:08.963Z,3.46
2018-12-05T23:32:37.194Z,3.43
2018-12-05T23:35:05.558Z,3.46
2018-12-05T23:37:33.733Z,3.46
2018-12-05T23:40:01.893Z,3.40
2018-12-05T23:45:23.423Z,3.45
2018-12-05T23:47:51.697Z,3.34
2018-12-05T23:50:19.908Z,3.36
2018-12-05T23:52:48.199Z,3.35
2018-12-05T23:55:16.436Z,3.38
2018-12-05T23:57:44.605Z,3.40
